Time;durP1;ratioP1;P1;durP2;ratioP2;P2;SDS_P1;SDS_P2;PMS_P1;PMS_P2;Temp;Humidity;BMP_temperature;BMP_pressure;BME280_temperature;BME280_humidity;BME280_pressure;Samples;Min_cycle;Max_cycle;Signal;HPM_P1;HPM_P2
2021/10/17 00:02:21;;;;;;;23.80;14.73;;;;;;;2.78;100.00;95454.00;4954754;28;20018;-64
2021/10/17 00:04:46;;;;;;;23.67;14.13;;;;;;;2.81;100.00;95453.59;4954982;28;20097;-64
2021/10/17 00:07:12;;;;;;;23.67;14.23;;;;;;;2.81;100.00;95448.28;4955203;28;20077;-64
2021/10/17 00:09:41;;;;;;;22.67;13.93;;;;;;;2.81;100.00;95451.75;4955007;28;20037;-64
2021/10/17 00:12:10;;;;;;;21.75;13.75;;;;;;;2.81;100.00;95458.88;4954264;28;20454;-64
2021/10/17 00:14:37;;;;;;;23.70;13.45;;;;;;;2.83;100.00;95448.91;4938769;28;20035;-64
2021/10/17 00:17:06;;;;;;;24.95;14.55;;;;;;;2.83;100.00;95451.56;4954587;28;20022;-64
2021/10/17 00:19:32;;;;;;;24.23;14.15;;;;;;;2.86;100.00;95453.78;4972306;28;20074;-64
2021/10/17 00:21:57;;;;;;;19.67;13.40;;;;;;;2.87;100.00;95445.63;4954571;28;20038;-62
2021/10/17 00:24:25;;;;;;;34.17;14.70;;;;;;;2.92;100.00;95452.94;4955157;28;20038;-64
2021/10/17 00:26:51;;;;;;;43.17;14.00;;;;;;;2.92;100.00;95453.75;4971520;28;20129;-64
2021/10/17 00:29:16;;;;;;;53.92;15.10;;;;;;;2.97;100.00;95453.16;4953399;28;20446;-64
2021/10/17 00:31:42;;;;;;;24.88;14.05;;;;;;;3.02;100.00;95444.56;4971741;28;20027;-64
2021/10/17 00:34:10;;;;;;;31.80;15.43;;;;;;;3.03;100.00;95444.34;4954581;28;20026;-64
2021/10/17 00:36:35;;;;;;;25.50;13.68;;;;;;;3.03;100.00;95444.34;4954710;28;20035;-64
2021/10/17 00:39:04;;;;;;;25.50;13.63;;;;;;;3.00;100.00;95444.78;4954288;28;20498;-64
2021/10/17 00:41:33;;;;;;;58.95;13.82;;;;;;;3.00;100.00;95447.44;4971530;28;20113;-64
2021/10/17 00:44:00;;;;;;;33.25;12.95;;;;;;;3.10;100.00;95439.88;4938594;28;20031;-64
2021/10/17 00:46:26;;;;;;;42.35;13.50;;;;;;;3.15;100.00;95439.25;4938519;28;20061;-64
2021/10/17 00:48:54;;;;;;;20.73;12.82;;;;;;;3.15;100.00;95434.78;4954342;28;20466;-64
2021/10/17 00:51:19;;;;;;;20.17;12.75;;;;;;;3.16;100.00;95435.59;4971762;28;20018;-64
2021/10/17 00:53:44;;;;;;;22.73;13.10;;;;;;;3.16;100.00;95432.94;4938478;28;20038;-63
2021/10/17 00:56:13;;;;;;;19.05;12.70;;;;;;;3.15;100.00;95434.78;4971876;28;20035;-64
2021/10/17 00:58:38;;;;;;;27.30;13.20;;;;;;;3.20;100.00;95434.13;4971219;28;20038;-64
2021/10/17 01:01:04;;;;;;;21.20;12.32;;;;;;;3.20;100.00;95427.00;4938331;28;20031;-64
2021/10/17 01:03:41;;;;;;;20.75;13.48;;;;;;;3.19;100.00;95424.56;4971336;28;20023;-64
2021/10/17 01:06:11;;;;;;;27.75;13.15;;;;;;;3.19;100.00;95425.38;4941958;28;20040;-62
2021/10/17 01:08:43;;;;;;;22.20;13.18;;;;;;;3.24;100.00;95424.72;4958191;28;20058;-64
2021/10/17 01:11:12;;;;;;;20.60;13.57;;;;;;;3.23;100.00;95423.13;4957783;28;20034;-63
2021/10/17 01:13:37;;;;;;;23.48;13.38;;;;;;;3.26;100.00;95424.53;4975040;28;20385;-64
2021/10/17 01:16:03;;;;;;;20.25;13.07;;;;;;;3.31;100.00;95422.88;4957769;28;20114;-64
2021/10/17 01:18:32;;;;;;;23.55;13.60;;;;;;;3.32;100.00;95410.44;4941451;28;20023;-64
2021/10/17 01:21:07;;;;;;;20.73;12.68;;;;;;;3.30;100.00;95409.84;4957631;28;20027;-64
2021/10/17 01:23:35;;;;;;;20.55;13.73;;;;;;;3.28;100.00;95419.84;4941788;28;20042;-64
2021/10/17 01:26:00;;;;;;;20.25;12.18;;;;;;;3.26;100.00;95417.41;4974572;28;20022;-64
2021/10/17 01:28:29;;;;;;;22.58;12.95;;;;;;;3.26;100.00;95420.06;4974375;28;20037;-64
2021/10/17 01:30:54;;;;;;;39.42;14.23;;;;;;;3.26;100.00;95416.59;4957156;28;20027;-64
2021/10/17 01:33:19;;;;;;;25.38;13.60;;;;;;;3.22;100.00;95416.19;4974881;28;20034;-64
2021/10/17 01:35:45;;;;;;;25.05;12.63;;;;;;;3.23;100.00;95419.66;4974833;28;20087;-63
2021/10/17 01:38:10;;;;;;;23.08;12.02;;;;;;;3.18;100.00;95415.81;4957235;28;20027;-64
2021/10/17 01:40:36;;;;;;;26.42;11.88;;;;;;;3.16;100.00;95419.69;4956816;28;20027;-64
2021/10/17 01:43:05;;;;;;;17.17;10.95;;;;;;;3.11;100.00;95419.50;4957518;28;20039;-64
2021/10/17 01:45:33;;;;;;;18.05;11.95;;;;;;;3.05;100.00;95423.00;4957159;28;20397;-64
2021/10/17 01:47:59;;;;;;;29.15;12.75;;;;;;;2.98;100.00;95419.56;4974518;28;20030;-64
2021/10/17 01:50:27;;;;;;;17.58;11.88;;;;;;;2.92;100.00;95413.25;4974047;28;20166;-64
2021/10/17 01:52:52;;;;;;;24.45;11.75;;;;;;;2.87;100.00;95423.66;4974283;28;20683;-63
2021/10/17 01:55:18;;;;;;;15.18;11.95;;;;;;;2.81;100.00;95422.66;4974156;28;20026;-63
2021/10/17 01:57:43;;;;;;;19.65;11.98;;;;;;;2.78;100.00;95417.78;4957703;28;20019;-60
2021/10/17 02:00:15;;;;;;;19.73;12.75;;;;;;;2.74;100.00;95415.78;4973895;28;20037;-62
2021/10/17 02:02:44;;;;;;;18.33;12.48;;;;;;;2.72;100.00;95416.00;4974661;28;20394;-62
2021/10/17 02:05:12;;;;;;;17.88;12.40;;;;;;;2.71;100.00;95419.63;4956976;28;20023;-62
2021/10/17 02:07:37;;;;;;;17.33;12.18;;;;;;;2.72;100.00;95418.63;4974168;28;20026;-63
2021/10/17 02:10:06;;;;;;;17.42;11.93;;;;;;;2.74;100.00;95423.72;4956657;28;20356;-61
2021/10/17 02:12:38;;;;;;;19.92;12.63;;;;;;;2.77;100.00;95416.16;4957367;28;20131;-62
2021/10/17 02:15:05;;;;;;;17.77;12.45;;;;;;;2.79;100.00;95416.75;4974103;28;20035;-62
2021/10/17 02:17:36;;;;;;;18.58;12.30;;;;;;;2.81;100.00;95413.91;4956245;28;20146;-62
2021/10/17 02:20:02;;;;;;;18.23;12.55;;;;;;;2.82;100.00;95418.16;4956350;28;20490;-62
2021/10/17 02:22:27;;;;;;;17.73;11.95;;;;;;;2.84;100.00;95422.25;4973919;28;20113;-61
2021/10/17 02:24:56;;;;;;;19.65;13.32;;;;;;;2.88;100.00;95420.81;4974613;28;20101;-64
2021/10/17 02:27:21;;;;;;;19.27;12.65;;;;;;;2.94;100.00;95418.38;4973591;28;20129;-64
2021/10/17 02:29:46;;;;;;;17.50;12.35;;;;;;;2.98;100.00;95424.84;4973143;28;20030;-63
2021/10/17 02:32:12;;;;;;;17.90;12.60;;;;;;;3.03;100.00;95415.25;4973590;28;20038;-64
2021/10/17 02:34:40;;;;;;;19.13;13.02;;;;;;;3.04;100.00;95410.75;4956252;28;20390;-64
2021/10/17 02:37:09;;;;;;;19.38;12.60;;;;;;;3.00;100.00;95410.38;4955969;28;20477;-64
2021/10/17 02:39:34;;;;;;;19.45;12.60;;;;;;;2.94;100.00;95411.25;4955969;28;20034;-64
2021/10/17 02:41:59;;;;;;;18.30;12.45;;;;;;;2.86;100.00;95414.09;4956023;28;20049;-64
2021/10/17 02:44:31;;;;;;;20.63;13.05;;;;;;;2.76;100.00;95406.59;4973377;28;20046;-64
2021/10/17 02:46:59;;;;;;;18.92;12.48;;;;;;;2.67;100.00;95404.38;4940033;28;20034;-62
2021/10/17 02:49:25;;;;;;;21.92;13.95;;;;;;;2.58;100.00;95411.72;4972936;28;20030;-63
2021/10/17 02:51:51;;;;;;;20.73;13.45;;;;;;;2.52;100.00;95405.44;4973139;28;20034;-59
2021/10/17 02:54:17;;;;;;;19.98;12.93;;;;;;;2.44;100.00;95403.03;4955973;28;20031;-64
2021/10/17 02:56:45;;;;;;;22.88;12.77;;;;;;;2.40;100.00;95396.53;4956315;28;20135;-63
2021/10/17 02:59:10;;;;;;;18.10;12.50;;;;;;;2.41;100.00;95402.63;4972946;28;20034;-64
2021/10/17 03:01:36;;;;;;;18.25;12.25;;;;;;;2.37;100.00;95406.69;4973179;28;20037;-64
2021/10/17 03:04:10;;;;;;;17.80;11.80;;;;;;;2.28;100.00;95403.47;4972925;28;20019;-64
2021/10/17 03:06:42;;;;;;;19.08;12.57;;;;;;;2.18;100.00;95405.72;4955618;28;20031;-62
2021/10/17 03:09:13;;;;;;;18.17;11.90;;;;;;;2.08;100.00;95419.34;4972549;28;20030;-64
2021/10/17 03:11:38;;;;;;;19.40;12.52;;;;;;;1.97;100.00;95422.59;4955623;28;20027;-63
2021/10/17 03:14:04;;;;;;;16.38;11.77;;;;;;;1.85;100.00;95424.19;4972829;28;20031;-64
2021/10/17 03:16:30;;;;;;;15.50;10.93;;;;;;;1.73;100.00;95430.06;4955709;28;20058;-64
2021/10/17 03:18:58;;;;;;;16.73;11.68;;;;;;;1.70;100.00;95435.75;4955648;28;20034;-63
2021/10/17 03:21:27;;;;;;;13.90;10.10;;;;;;;1.74;100.00;95428.25;4972774;28;20105;-64
2021/10/17 03:23:52;;;;;;;16.13;10.60;;;;;;;1.77;100.00;95433.13;4972436;28;20051;-63
2021/10/17 03:26:18;;;;;;;18.45;11.30;;;;;;;1.78;100.00;95426.81;4955376;28;20066;-64
2021/10/17 03:28:46;;;;;;;16.88;11.95;;;;;;;1.82;100.00;95424.59;4971586;28;20506;-64
2021/10/17 03:31:11;;;;;;;15.00;11.00;;;;;;;1.86;100.00;95426.63;4955022;28;20023;-64
2021/10/17 03:33:43;;;;;;;19.40;12.10;;;;;;;1.95;100.00;95427.22;4954972;28;20057;-64
2021/10/17 03:36:08;;;;;;;17.75;11.32;;;;;;;2.04;100.00;95418.09;4972572;28;20034;-64
2021/10/17 03:38:43;;;;;;;17.77;12.35;;;;;;;2.16;100.00;95413.00;4972230;28;20027;-64
2021/10/17 03:41:08;;;;;;;20.63;12.82;;;;;;;2.24;100.00;95421.53;4955177;28;20045;-63
2021/10/17 03:43:34;;;;;;;24.35;13.77;;;;;;;2.35;100.00;95412.19;4955340;28;20026;-64
2021/10/17 03:46:02;;;;;;;24.20;13.27;;;;;;;2.45;100.00;95409.94;4972338;28;20030;-64
2021/10/17 03:48:27;;;;;;;30.77;14.10;;;;;;;2.51;100.00;95403.81;4972000;28;20019;-63
2021/10/17 03:50:56;;;;;;;22.50;14.05;;;;;;;2.61;100.00;95406.06;4954886;28;20093;-63
2021/10/17 03:53:21;;;;;;;36.22;14.32;;;;;;;2.59;100.00;95402.78;4955383;28;20029;-63
2021/10/17 03:55:47;;;;;;;37.92;14.55;;;;;;;2.66;100.00;95408.06;4971932;28;20023;-64
2021/10/17 03:58:12;;;;;;;29.65;14.38;;;;;;;2.70;100.00;95403.97;4954655;28;20118;-64
2021/10/17 04:00:40;;;;;;;25.48;14.50;;;;;;;2.73;100.00;95403.56;4954893;28;20138;-64
2021/10/17 04:03:05;;;;;;;34.38;14.73;;;;;;;2.74;100.00;95398.06;4954878;28;20037;-64
2021/10/17 04:05:31;;;;;;;29.55;14.07;;;;;;;-144.43;100.00;64487.81;4972291;28;20106;-63
2021/10/17 04:07:56;;;;;;;26.45;14.05;;;;;;;-144.43;100.00;64487.81;4972228;28;20023;-64
2021/10/17 04:10:21;;;;;;;35.38;14.68;;;;;;;-144.43;100.00;64487.81;4971890;28;20033;-64
2021/10/17 04:12:49;;;;;;;24.25;13.15;;;;;;;-144.43;100.00;64487.81;4972245;28;20474;-64
2021/10/17 04:15:14;;;;;;;23.85;13.52;;;;;;;-144.43;100.00;64487.81;4972313;28;20026;-64
2021/10/17 04:17:46;;;;;;;26.35;13.30;;;;;;;-144.43;100.00;64487.81;4954653;28;20029;-64
2021/10/17 04:20:14;;;;;;;23.10;14.35;;;;;;;-144.43;100.00;64487.81;4954555;28;20479;-64
2021/10/17 04:22:41;;;;;;;27.42;13.93;;;;;;;-144.43;100.00;64487.81;4972305;28;20035;-62
2021/10/17 04:25:06;;;;;;;30.67;14.20;;;;;;;-144.43;100.00;64487.81;4972279;28;20462;-64
2021/10/17 04:27:32;;;;;;;31.58;14.13;;;;;;;-144.43;100.00;64487.81;4954657;28;20179;-64
2021/10/17 04:29:57;;;;;;;25.02;13.38;;;;;;;3.36;100.00;95356.84;4954273;28;20093;-64
2021/10/17 04:32:25;;;;;;;32.63;14.43;;;;;;;-144.43;100.00;64487.81;4971856;28;20086;-64
2021/10/17 04:34:51;;;;;;;23.42;12.88;;;;;;;-144.43;100.00;64487.81;4972006;28;20394;-61
2021/10/17 04:37:16;;;;;;;39.53;14.88;;;;;;;-144.43;100.00;64487.81;4954664;28;20027;-64
2021/10/17 04:39:42;;;;;;;44.90;14.85;;;;;;;-144.43;100.00;64487.81;4938648;28;20046;-62
2021/10/17 04:42:10;;;;;;;25.15;15.27;;;;;;;-144.43;100.00;64487.81;4958494;28;20034;-60
2021/10/17 04:44:42;;;;;;;24.52;14.20;;;;;;;-144.43;100.00;64487.81;4958360;28;20486;-64
2021/10/17 04:47:07;;;;;;;36.42;14.95;;;;;;;-144.43;100.00;64487.81;4975249;28;20031;-64
2021/10/17 04:49:32;;;;;;;34.80;13.88;;;;;;;-144.43;100.00;64487.81;4975288;28;20406;-63
2021/10/17 04:51:58;;;;;;;28.00;13.88;;;;;;;-144.43;100.00;64487.81;4975531;28;20053;-64
2021/10/17 04:54:23;;;;;;;28.75;13.48;;;;;;;-144.43;100.00;64487.81;4957980;28;20023;-64
2021/10/17 04:56:49;;;;;;;24.75;13.43;;;;;;;-144.43;100.00;64487.81;4958068;28;20027;-64
2021/10/17 04:59:20;;;;;;;24.40;13.40;;;;;;;-144.43;100.00;64487.81;4957880;28;20179;-63
2021/10/17 05:01:45;;;;;;;25.42;14.05;;;;;;;-144.43;100.00;64487.81;4958614;28;20019;-63
2021/10/17 05:04:13;;;;;;;26.38;12.40;;;;;;;-144.43;100.00;64487.81;4975571;28;20082;-64
2021/10/17 05:06:44;;;;;;;23.58;12.82;;;;;;;-144.43;100.00;64487.81;4957918;28;20434;-64
2021/10/17 05:09:13;;;;;;;26.90;13.10;;;;;;;-144.43;100.00;64487.81;4957658;28;20023;-64
2021/10/17 05:11:41;;;;;;;20.73;13.48;;;;;;;-144.43;100.00;64487.81;4957684;28;20031;-64
2021/10/17 05:14:07;;;;;;;24.08;12.50;;;;;;;-144.43;100.00;64487.81;4975122;28;20023;-64
2021/10/17 05:16:38;;;;;;;26.50;13.43;;;;;;;-144.43;100.00;64487.81;4957781;28;20073;-64
2021/10/17 05:19:03;;;;;;;20.33;12.88;;;;;;;-144.43;100.00;64487.81;4974830;28;20051;-64
2021/10/17 05:21:32;;;;;;;24.98;12.07;;;;;;;-144.43;100.00;64487.81;4974921;28;20054;-63
2021/10/17 05:23:57;;;;;;;29.42;13.88;;;;;;;-144.43;100.00;64487.81;4974977;28;20426;-63
2021/10/17 05:26:23;;;;;;;22.75;12.52;;;;;;;-144.43;100.00;64487.81;4974582;28;20046;-63
2021/10/17 05:28:48;;;;;;;27.77;12.98;;;;;;;4.02;100.00;95326.44;4957274;28;20034;-63
2021/10/17 05:31:14;;;;;;;18.42;12.65;;;;;;;4.06;100.00;95338.22;4974755;28;20082;-63
2021/10/17 05:33:39;;;;;;;19.40;12.43;;;;;;;4.08;100.00;95350.22;4957458;28;20023;-60
2021/10/17 05:36:08;;;;;;;26.98;12.93;;;;;;;-144.43;100.00;64487.81;4974762;28;20470;-63
2021/10/17 05:38:36;;;;;;;52.65;14.63;;;;;;;-144.43;100.00;64487.81;4956819;28;20110;-63
2021/10/17 05:41:01;;;;;;;20.35;13.15;;;;;;;-144.43;100.00;64487.81;4974562;28;20073;-64
2021/10/17 05:43:30;;;;;;;17.15;12.48;;;;;;;-144.43;100.00;64487.81;4941204;28;20035;-63
2021/10/17 05:46:02;;;;;;;23.13;12.35;;;;;;;-144.43;100.00;64487.81;4974350;28;20089;-63
2021/10/17 05:48:27;;;;;;;19.13;12.40;;;;;;;-144.43;100.00;64487.81;4941465;28;20055;-63
2021/10/17 05:50:52;;;;;;;18.73;12.20;;;;;;;-144.43;100.00;64487.81;4956347;28;20695;-64
2021/10/17 05:53:21;;;;;;;21.77;11.98;;;;;;;-144.43;100.00;64487.81;4957600;28;20027;-63
2021/10/17 05:55:46;;;;;;;53.92;14.02;;;;;;;-144.43;100.00;64487.81;4957135;28;20031;-64
2021/10/17 05:58:14;;;;;;;41.08;13.23;;;;;;;-144.43;100.00;64487.81;4956422;28;20086;-63
2021/10/17 06:00:39;;;;;;;44.22;14.25;;;;;;;-144.43;100.00;64487.81;4974014;28;20101;-64
2021/10/17 06:03:04;;;;;;;31.75;13.77;;;;;;;-144.43;100.00;64487.81;4956795;28;20125;-63
2021/10/17 06:05:30;;;;;;;40.30;13.13;;;;;;;-144.43;100.00;64487.81;4974347;28;20014;-63
2021/10/17 06:07:56;;;;;;;31.70;13.23;;;;;;;-144.43;100.00;64487.81;4973522;28;20025;-63
2021/10/17 06:10:24;;;;;;;61.88;13.70;;;;;;;-144.43;100.00;64487.81;4956664;28;20162;-63
2021/10/17 06:12:50;;;;;;;75.95;13.90;;;;;;;-144.43;100.00;64487.81;4974138;28;20109;-63
2021/10/17 06:15:15;;;;;;;44.95;15.18;;;;;;;-144.43;100.00;64487.81;4956557;28;20162;-63
2021/10/17 06:17:40;;;;;;;35.65;13.63;;;;;;;-144.43;100.00;64487.81;4956766;28;20026;-64
2021/10/17 06:20:07;;;;;;;33.63;13.32;;;;;;;-144.43;100.00;64487.81;4956698;28;20039;-64
2021/10/17 06:22:33;;;;;;;45.58;14.02;;;;;;;-144.43;100.00;64487.81;4973950;28;20027;-62
2021/10/17 06:24:58;;;;;;;35.95;13.63;;;;;;;-144.43;100.00;64487.81;4974028;28;20498;-63
2021/10/17 06:27:24;;;;;;;28.23;14.10;;;;;;;-144.43;100.00;64487.81;4956690;28;20074;-63
2021/10/17 06:29:49;;;;;;;30.70;14.32;;;;;;;-144.43;100.00;64487.81;4956486;28;20026;-59
2021/10/17 06:32:14;;;;;;;24.60;13.13;;;;;;;-144.43;100.00;64487.81;4974309;28;20466;-61
2021/10/17 06:34:40;;;;;;;24.27;12.75;;;;;;;-144.43;100.00;64487.81;4966981;28;20023;-61
2021/10/17 06:37:05;;;;;;;25.40;12.60;;;;;;;-144.43;100.00;64487.81;4933622;28;20062;-60
2021/10/17 06:39:30;;;;;;;25.73;13.45;;;;;;;-144.43;100.00;64487.81;4939011;28;20082;-56
2021/10/17 06:41:56;;;;;;;26.90;13.93;;;;;;;-144.43;100.00;64487.81;4976026;28;20034;-60
2021/10/17 06:44:21;;;;;;;30.67;13.98;;;;;;;-144.43;100.00;64487.81;4962029;28;20029;-61
2021/10/17 06:46:47;;;;;;;37.20;13.65;;;;;;;-144.43;100.00;64487.81;4972275;28;20610;-63
2021/10/17 06:49:13;;;;;;;30.88;12.90;;;;;;;-144.43;100.00;64487.81;4956034;28;20577;-62
2021/10/17 06:51:38;;;;;;;17.70;12.68;;;;;;;-144.43;100.00;64487.81;4953558;28;20030;-55
2021/10/17 06:54:03;;;;;;;29.02;12.77;;;;;;;-144.43;100.00;64487.81;4969966;28;20089;-57
2021/10/17 06:56:29;;;;;;;27.05;12.70;;;;;;;-144.43;100.00;64487.81;4983686;28;20024;-59
2021/10/17 06:58:54;;;;;;;28.95;13.13;;;;;;;-144.43;100.00;64487.81;4968443;28;20015;-59
2021/10/17 07:01:20;;;;;;;26.60;13.45;;;;;;;-144.43;100.00;64487.81;4953286;28;20023;-59
2021/10/17 07:03:45;;;;;;;40.05;13.10;;;;;;;-144.43;100.00;64487.81;4958578;28;20077;-61
2021/10/17 07:06:10;;;;;;;29.13;13.77;;;;;;;-144.43;100.00;64487.81;4959160;28;20019;-61
2021/10/17 07:08:36;;;;;;;30.20;14.65;;;;;;;-144.43;100.00;64487.81;4955522;28;20437;-62
2021/10/17 07:11:01;;;;;;;40.85;16.52;;;;;;;-144.43;100.00;64487.81;4972627;28;20447;-60
2021/10/17 07:13:27;;;;;;;33.25;14.05;;;;;;;-144.43;100.00;64487.81;4962240;28;20027;-61
2021/10/17 07:15:55;;;;;;;20.63;12.18;;;;;;;-144.43;100.00;64487.81;4979705;28;20062;-60
2021/10/17 07:18:20;;;;;;;23.83;13.10;;;;;;;-144.43;100.00;64487.81;4954572;28;20030;-63
2021/10/17 07:20:46;;;;;;;24.70;13.23;;;;;;;-144.43;100.00;64487.81;4969500;28;20410;-62
2021/10/17 07:23:11;;;;;;;19.85;12.85;;;;;;;-144.43;100.00;64487.81;4953072;28;20026;-63
2021/10/17 07:25:39;;;;;;;23.90;13.52;;;;;;;-144.43;100.00;64487.81;4975112;28;20037;-62
2021/10/17 07:28:11;;;;;;;29.15;12.52;;;;;;;-144.43;100.00;64487.81;4970289;28;20061;-60
2021/10/17 07:30:37;;;;;;;32.70;13.18;;;;;;;-144.43;100.00;64487.81;4942739;28;20054;-63
2021/10/17 07:33:03;;;;;;;29.88;13.52;;;;;;;-144.43;100.00;64487.81;4955238;28;20497;-60
2021/10/17 07:35:28;;;;;;;42.92;13.85;;;;;;;-144.43;100.00;64487.81;4955212;28;20033;-62
2021/10/17 07:37:55;;;;;;;45.22;13.30;;;;;;;-144.43;100.00;64487.81;4938742;28;20034;-63
2021/10/17 07:40:21;;;;;;;38.95;13.60;;;;;;;-144.43;100.00;64487.81;4954911;28;20019;-62
2021/10/17 07:42:50;;;;;;;46.80;13.77;;;;;;;-144.43;100.00;64487.81;4970596;28;20075;-62
2021/10/17 07:45:15;;;;;;;21.58;12.95;;;;;;;-144.43;100.00;64487.81;4972684;28;20042;-63
2021/10/17 07:47:40;;;;;;;30.83;12.93;;;;;;;-144.43;100.00;64487.81;4971012;28;20466;-59
2021/10/17 07:50:08;;;;;;;53.72;14.77;;;;;;;-144.43;100.00;64487.81;4954689;28;20105;-54
2021/10/17 07:52:34;;;;;;;36.58;14.77;;;;;;;-144.43;100.00;64487.81;4970166;28;20039;-66
2021/10/17 07:54:59;;;;;;;36.20;16.90;;;;;;;-144.43;100.00;64487.81;4974041;28;20026;-62
2021/10/17 07:57:24;;;;;;;62.25;17.92;;;;;;;-144.43;100.00;64487.81;4976661;28;20525;-66
2021/10/17 07:59:50;;;;;;;48.20;15.95;;;;;;;-144.43;100.00;64487.81;4971550;28;20537;-63
2021/10/17 08:02:15;;;;;;;36.10;14.57;;;;;;;-144.43;100.00;64487.81;4967416;28;20037;-63
2021/10/17 08:04:41;;;;;;;46.00;15.13;;;;;;;-144.43;100.00;64487.81;4974926;28;20069;-61
2021/10/17 08:07:06;;;;;;;54.92;15.93;;;;;;;-144.43;100.00;64487.81;4968165;28;20056;-62
2021/10/17 08:09:32;;;;;;;49.90;15.82;;;;;;;-144.43;100.00;64487.81;4925725;28;20034;-62
2021/10/17 08:11:58;;;;;;;30.90;14.88;;;;;;;-144.43;100.00;64487.81;4972113;28;20552;-60
2021/10/17 08:14:23;;;;;;;54.95;14.93;;;;;;;-144.43;100.00;64487.81;4955871;28;20035;-62
2021/10/17 08:16:49;;;;;;;34.10;15.18;;;;;;;-144.43;100.00;64487.81;4959028;28;20074;-62
2021/10/17 08:19:14;;;;;;;37.85;15.23;;;;;;;-144.43;100.00;64487.81;4958986;28;20031;-62
2021/10/17 08:21:43;;;;;;;54.35;16.65;;;;;;;-144.43;100.00;64487.81;4958917;28;20159;-63
2021/10/17 08:24:08;;;;;;;39.38;17.05;;;;;;;-144.43;100.00;64487.81;4958360;28;20029;-62
2021/10/17 08:26:43;;;;;;;60.42;24.55;;;;;;;-144.43;100.00;64487.81;4982384;28;20778;-60
2021/10/17 08:29:09;;;;;;;52.00;19.35;;;;;;;-144.43;100.00;64487.81;4958305;28;20023;-58
2021/10/17 08:31:34;;;;;;;50.38;18.63;;;;;;;-144.43;100.00;64487.81;4975734;28;20820;-58
2021/10/17 08:34:05;;;;;;;56.78;20.30;;;;;;;-144.43;100.00;64487.81;4942350;28;20391;-59
2021/10/17 08:36:30;;;;;;;40.50;17.77;;;;;;;-144.43;100.00;64487.81;4975648;28;20110;-57
2021/10/17 08:38:56;;;;;;;52.50;19.65;;;;;;;-144.43;100.00;64487.81;4957857;28;20491;-62
2021/10/17 08:41:21;;;;;;;48.65;21.52;;;;;;;-144.43;100.00;64487.81;4975578;28;20122;-61
2021/10/17 08:43:46;;;;;;;50.92;19.20;;;;;;;-144.43;100.00;64487.81;4975700;28;20545;-63
2021/10/17 08:46:12;;;;;;;48.15;20.77;;;;;;;-144.43;100.00;64487.81;4976946;28;20137;-62
2021/10/17 08:48:38;;;;;;;50.60;20.95;;;;;;;-144.43;100.00;64487.81;4975206;28;20459;-60
2021/10/17 08:51:05;;;;;;;44.25;21.20;;;;;;;-144.43;100.00;64487.81;4975514;28;20098;-61
2021/10/17 08:53:31;;;;;;;59.35;20.38;;;;;;;-144.43;100.00;64487.81;4942034;28;20049;-60
2021/10/17 08:55:59;;;;;;;46.30;21.27;;;;;;;-144.43;100.00;64487.81;4939841;28;20498;-64
2021/10/17 08:58:30;;;;;;;47.95;21.08;;;;;;;-144.43;100.00;64487.81;4957562;28;20034;-58
2021/10/17 09:01:13;;;;;;;49.35;22.50;;;;;;;-144.43;100.00;64487.81;4957855;28;20082;-62
2021/10/17 09:03:39;;;;;;;54.33;24.60;;;;;;;-144.43;100.00;64487.81;4975334;28;20036;-62
2021/10/17 09:06:22;;;;;;;44.65;21.35;;;;;;;-144.43;100.00;64487.81;4957796;28;20836;-61
2021/10/17 09:08:56;;;;;;;53.95;22.85;;;;;;;-144.43;100.00;64487.81;4957572;28;20023;-62
2021/10/17 09:11:38;;;;;;;42.63;22.35;;;;;;;-144.43;100.00;64487.81;4957711;28;20034;-63
2021/10/17 09:14:05;;;;;;;44.50;20.83;;;;;;;-144.43;100.00;64487.81;4975160;28;20085;-63
2021/10/17 09:16:42;;;;;;;43.22;21.48;;;;;;;-144.43;100.00;64487.81;4957954;28;20027;-63
2021/10/17 09:19:21;;;;;;;45.92;20.67;;;;;;;-144.43;100.00;64487.81;4974606;28;20038;-62
2021/10/17 09:22:09;;;;;;;45.15;21.80;;;;;;;-144.43;100.00;64487.81;4974816;28;20398;-65
2021/10/17 09:24:46;;;;;;;43.65;22.67;;;;;;;-144.43;100.00;64487.81;4941659;28;20845;-65
2021/10/17 09:27:15;;;;;;;44.78;22.50;;;;;;;-144.43;100.00;64487.81;4963037;28;20047;-62
2021/10/17 09:29:49;;;;;;;43.40;21.73;;;;;;;-144.43;100.00;64487.81;4974544;28;20490;-65
2021/10/17 09:32:17;;;;;;;43.10;21.88;;;;;;;-144.43;100.00;64487.81;4945690;28;20195;-65
2021/10/17 09:34:59;;;;;;;39.10;21.60;;;;;;;-144.43;100.00;64487.81;4945144;28;20033;-65
2021/10/17 09:37:32;;;;;;;35.60;20.45;;;;;;;-144.43;100.00;64487.81;4955582;28;20528;-65
2021/10/17 09:40:19;;;;;;;37.25;20.95;;;;;;;-144.43;100.00;64487.81;4973492;28;20482;-64
2021/10/17 09:43:43;;;;;;;37.08;20.48;;;;;;;-144.43;100.00;64487.81;4968335;28;20437;-63
2021/10/17 09:46:15;;;;;;;34.85;18.73;;;;;;;-144.43;100.00;64487.81;4929606;28;20611;-65
2021/10/17 09:48:41;;;;;;;31.27;18.75;;;;;;;-144.43;100.00;64487.81;4955519;28;20388;-65
2021/10/17 09:51:11;;;;;;;32.90;18.25;;;;;;;-144.43;100.00;64487.81;4958509;28;20032;-65
2021/10/17 09:53:47;;;;;;;34.83;18.70;;;;;;;-144.43;100.00;64487.81;4974137;28;20050;-65
2021/10/17 09:56:38;;;;;;;30.63;18.30;;;;;;;-144.43;100.00;64487.81;4948278;28;20119;-65
2021/10/17 09:59:06;;;;;;;32.97;19.40;;;;;;;-144.43;100.00;64487.81;4956660;28;20482;-65
2021/10/17 10:01:36;;;;;;;33.80;18.45;;;;;;;-144.43;100.00;64487.81;4957054;28;20090;-66
2021/10/17 10:04:09;;;;;;;32.22;19.08;;;;;;;-144.43;100.00;64487.81;4957265;28;20081;-65
2021/10/17 10:06:35;;;;;;;32.30;18.75;;;;;;;-144.43;100.00;64487.81;4956969;28;20565;-65
2021/10/17 10:09:15;;;;;;;32.33;18.95;;;;;;;-144.43;100.00;64487.81;4956468;28;20035;-65
2021/10/17 10:11:40;;;;;;;30.27;19.02;;;;;;;-144.43;100.00;64487.81;4956757;28;20410;-65
2021/10/17 10:14:09;;;;;;;31.95;18.48;;;;;;;-144.43;100.00;64487.81;4956697;28;20026;-66
2021/10/17 10:16:41;;;;;;;31.88;19.10;;;;;;;-144.43;100.00;64487.81;4959841;28;20089;-66
2021/10/17 10:19:16;;;;;;;31.63;18.33;;;;;;;-144.43;100.00;64487.81;4965799;28;20464;-66
2021/10/17 10:21:41;;;;;;;30.15;18.27;;;;;;;-144.43;100.00;64487.81;4944559;28;20031;-63
2021/10/17 10:24:10;;;;;;;31.48;18.85;;;;;;;-144.43;100.00;64487.81;4971710;28;20078;-61
2021/10/17 10:26:41;;;;;;;31.38;17.92;;;;;;;-144.43;100.00;64487.81;4973486;28;20066;-63
2021/10/17 10:29:09;;;;;;;30.83;18.20;;;;;;;-144.43;100.00;64487.81;4973636;28;20437;-64
2021/10/17 10:31:54;;;;;;;29.67;18.67;;;;;;;-144.43;100.00;64487.81;4973644;28;20026;-66
2021/10/17 10:34:32;;;;;;;29.60;18.67;;;;;;;-144.43;100.00;64487.81;4973948;28;20027;-65
2021/10/17 10:37:15;;;;;;;30.90;19.42;;;;;;;-144.43;100.00;64487.81;4973856;28;20506;-66
2021/10/17 10:39:59;;;;;;;32.15;19.05;;;;;;;-144.43;100.00;64487.81;4956111;28;20051;-66
2021/10/17 10:42:50;;;;;;;28.23;17.60;;;;;;;-144.43;100.00;64487.81;4973416;28;20022;-64
2021/10/17 10:45:35;;;;;;;26.75;17.73;;;;;;;-144.43;100.00;64487.81;4941796;28;20073;-63
2021/10/17 10:48:16;;;;;;;28.88;18.85;;;;;;;-144.43;100.00;64487.81;4954705;28;20097;-63
2021/10/17 10:51:00;;;;;;;29.60;16.95;;;;;;;-144.43;100.00;64487.81;4973135;28;20026;-63
2021/10/17 10:53:50;;;;;;;29.45;18.08;;;;;;;-144.43;100.00;64487.81;4956244;28;20035;-63
2021/10/17 10:56:41;;;;;;;27.23;17.83;;;;;;;-144.43;100.00;64487.81;4935571;29;20039;-63
2021/10/17 10:59:10;;;;;;;31.13;18.65;;;;;;;-144.43;100.00;64487.81;4949926;28;20086;-63
2021/10/17 11:02:01;;;;;;;32.97;20.00;;;;;;;-144.43;100.00;64487.81;4973181;28;20505;-63
2021/10/17 11:04:45;;;;;;;29.58;18.95;;;;;;;-144.43;100.00;64487.81;4939904;28;20054;-63
2021/10/17 11:07:27;;;;;;;30.45;18.35;;;;;;;-144.43;100.00;64487.81;4956108;28;20494;-64
2021/10/17 11:09:56;;;;;;;29.17;18.67;;;;;;;-144.43;100.00;64487.81;4973071;28;20047;-63